KAL169 KATL-KJFK
Flight info
| Callsign | KAL169 |
|---|---|
| Flight time | N/A |
| Altitude | 33000 |
| Route | PHIIL3 HRTWL Q64 SAWED Q108 SIE CAMRN5 |
| Aircraft | B77F/H-V/N |
Departure
| Time | 2026-05-07 01:37 |
|---|---|
| Airport | Hartsfield Jackson Atlanta International Airport (KATL) |
Arrival
| Time | N/A |
|---|---|
| Airport | John F. Kennedy International Airport (KJFK) |
| Time | Latitude | Longitude | Altitude | Speed | Heading |
|---|---|---|---|---|---|
| 2026-05-07 01:05 | 33.62674 | -84.42759 | 994 ft | 0 kts | 90° |
| 2026-05-07 01:22 | 33.62674 | -84.42763 | 994 ft | 2 kts | 89° |
| 2026-05-07 01:22 | 33.62673 | -84.42781 | 994 ft | 2 kts | 89° |
| 2026-05-07 01:23 | 33.62673 | -84.42799 | 994 ft | 2 kts | 90° |
| 2026-05-07 01:23 | 33.62673 | -84.42818 | 994 ft | 2 kts | 90° |
| 2026-05-07 01:23 | 33.62673 | -84.42835 | 994 ft | 2 kts | 80° |
| 2026-05-07 01:23 | 33.62666 | -84.42850 | 993 ft | 2 kts | 27° |
| 2026-05-07 01:24 | 33.62651 | -84.42853 | 993 ft | 2 kts | 354° |
| 2026-05-07 01:24 | 33.62640 | -84.42852 | 992 ft | 0 kts | 357° |
| 2026-05-07 01:24 | 33.62638 | -84.42852 | 992 ft | 0 kts | 358° |
| 2026-05-07 01:26 | 33.62647 | -84.42852 | 992 ft | 2 kts | 358° |
| 2026-05-07 01:27 | 33.62683 | -84.42853 | 994 ft | 5 kts | 360° |
| 2026-05-07 01:27 | 33.62722 | -84.42853 | 995 ft | 6 kts | 1° |
| 2026-05-07 01:27 | 33.62782 | -84.42853 | 998 ft | 11 kts | 360° |
| 2026-05-07 01:27 | 33.62853 | -84.42854 | 1000 ft | 8 kts | 360° |
| 2026-05-07 01:28 | 33.62897 | -84.42828 | 1001 ft | 9 kts | 63° |
| 2026-05-07 01:28 | 33.62906 | -84.42727 | 999 ft | 15 kts | 90° |
| 2026-05-07 01:28 | 33.62906 | -84.42594 | 998 ft | 15 kts | 91° |
| 2026-05-07 01:28 | 33.62904 | -84.42470 | 996 ft | 14 kts | 94° |
| 2026-05-07 01:29 | 33.62897 | -84.42348 | 994 ft | 14 kts | 94° |
| 2026-05-07 01:29 | 33.62934 | -84.42252 | 992 ft | 13 kts | 19° |
| 2026-05-07 01:29 | 33.63020 | -84.42251 | 992 ft | 11 kts | 1° |
| 2026-05-07 01:29 | 33.63067 | -84.42207 | 992 ft | 9 kts | 83° |
| 2026-05-07 01:30 | 33.63071 | -84.42096 | 989 ft | 17 kts | 90° |
| 2026-05-07 01:30 | 33.63071 | -84.41977 | 984 ft | 13 kts | 91° |
| 2026-05-07 01:30 | 33.63072 | -84.41924 | 981 ft | 0 kts | 79° |
| 2026-05-07 01:31 | 33.63073 | -84.41923 | 981 ft | 2 kts | 79° |
| 2026-05-07 01:31 | 33.63100 | -84.41869 | 979 ft | 11 kts | 38° |
| 2026-05-07 01:31 | 33.63178 | -84.41862 | 979 ft | 10 kts | 356° |
| 2026-05-07 01:31 | 33.63251 | -84.41841 | 979 ft | 12 kts | 18° |
| 2026-05-07 01:32 | 33.63310 | -84.41819 | 980 ft | 5 kts | 17° |
| 2026-05-07 01:32 | 33.63348 | -84.41808 | 979 ft | 5 kts | 13° |
| 2026-05-07 01:32 | 33.63410 | -84.41788 | 977 ft | 12 kts | 15° |
| 2026-05-07 01:32 | 33.63495 | -84.41762 | 975 ft | 11 kts | 6° |
| 2026-05-07 01:33 | 33.63551 | -84.41762 | 974 ft | 8 kts | 3° |
| 2026-05-07 01:33 | 33.63579 | -84.41705 | 972 ft | 10 kts | 86° |
| 2026-05-07 01:33 | 33.63581 | -84.41618 | 971 ft | 9 kts | 90° |
| 2026-05-07 01:33 | 33.63582 | -84.41534 | 970 ft | 11 kts | 90° |
| 2026-05-07 01:34 | 33.63582 | -84.41410 | 968 ft | 11 kts | 90° |
| 2026-05-07 01:34 | 33.63581 | -84.41317 | 968 ft | 10 kts | 90° |
| 2026-05-07 01:34 | 33.63581 | -84.41243 | 968 ft | 9 kts | 90° |
| 2026-05-07 01:34 | 33.63580 | -84.41167 | 968 ft | 9 kts | 90° |
| 2026-05-07 01:35 | 33.63579 | -84.41093 | 967 ft | 5 kts | 96° |
| 2026-05-07 01:35 | 33.63577 | -84.41081 | 967 ft | 0 kts | 108° |
| 2026-05-07 01:35 | 33.63576 | -84.41078 | 966 ft | 2 kts | 114° |
| 2026-05-07 01:35 | 33.63552 | -84.41048 | 966 ft | 5 kts | 151° |
| 2026-05-07 01:36 | 33.63511 | -84.41042 | 966 ft | 6 kts | 188° |
| 2026-05-07 01:36 | 33.63479 | -84.41070 | 966 ft | 5 kts | 239° |
| 2026-05-07 01:36 | 33.63473 | -84.41100 | 967 ft | 6 kts | 268° |
| 2026-05-07 01:36 | 33.63472 | -84.41361 | 969 ft | 65 kts | 270° |
| 2026-05-07 01:37 | 33.63471 | -84.42195 | 994 ft | 132 kts | 270° |
| 2026-05-07 01:37 | 33.63468 | -84.43528 | 1056 ft | 184 kts | 268° |
| 2026-05-07 01:37 | 33.63472 | -84.45083 | 1699 ft | 191 kts | 269° |
| 2026-05-07 01:37 | 33.63497 | -84.46627 | 2638 ft | 186 kts | 264° |
| 2026-05-07 01:38 | 33.63235 | -84.48198 | 3039 ft | 202 kts | 243° |
| 2026-05-07 01:38 | 33.62466 | -84.49711 | 3470 ft | 222 kts | 238° |
| 2026-05-07 01:38 | 33.61695 | -84.51383 | 4074 ft | 239 kts | 242° |
| 2026-05-07 01:38 | 33.60960 | -84.53173 | 5009 ft | 241 kts | 244° |
| 2026-05-07 01:39 | 33.60236 | -84.54962 | 5876 ft | 245 kts | 244° |
| 2026-05-07 01:39 | 33.59357 | -84.56705 | 6728 ft | 249 kts | 230° |
| 2026-05-07 01:39 | 33.57981 | -84.57945 | 7657 ft | 253 kts | 209° |
| 2026-05-07 01:39 | 33.56248 | -84.58474 | 8373 ft | 269 kts | 190° |
| 2026-05-07 01:40 | 33.54372 | -84.58503 | 9152 ft | 274 kts | 186° |
| 2026-05-07 01:40 | 33.52464 | -84.58471 | 9932 ft | 278 kts | 185° |
| 2026-05-07 01:40 | 33.50490 | -84.58180 | 10477 ft | 297 kts | 176° |
| 2026-05-07 01:40 | 33.48428 | -84.57470 | 10885 ft | 321 kts | 166° |
| 2026-05-07 01:41 | 33.46347 | -84.56264 | 11288 ft | 346 kts | 156° |
| 2026-05-07 01:41 | 33.44353 | -84.54493 | 11737 ft | 371 kts | 143° |
| 2026-05-07 01:41 | 33.42572 | -84.52117 | 12155 ft | 395 kts | 130° |
| 2026-05-07 01:41 | 33.41188 | -84.49183 | 12575 ft | 419 kts | 117° |
| 2026-05-07 01:42 | 33.40262 | -84.45792 | 13023 ft | 438 kts | 106° |
| 2026-05-07 01:42 | 33.39857 | -84.42190 | 13837 ft | 445 kts | 94° |
| 2026-05-07 01:42 | 33.39975 | -84.38499 | 14682 ft | 449 kts | 83° |
| 2026-05-07 01:42 | 33.40600 | -84.34842 | 15324 ft | 456 kts | 72° |
| 2026-05-07 01:43 | 33.41759 | -84.31271 | 16036 ft | 460 kts | 62° |
| 2026-05-07 01:43 | 33.43316 | -84.27953 | 16790 ft | 462 kts | 58° |
| 2026-05-07 01:43 | 33.44667 | -84.24466 | 17570 ft | 467 kts | 65° |
| 2026-05-07 01:43 | 33.45887 | -84.20823 | 18255 ft | 473 kts | 66° |
| 2026-05-07 01:44 | 33.47098 | -84.17167 | 18791 ft | 482 kts | 65° |
| 2026-05-07 01:44 | 33.48339 | -84.13410 | 19446 ft | 487 kts | 65° |
| 2026-05-07 01:44 | 33.49581 | -84.09648 | 20077 ft | 492 kts | 66° |
| 2026-05-07 01:44 | 33.50827 | -84.05865 | 20671 ft | 498 kts | 65° |
| 2026-05-07 01:45 | 33.52117 | -84.01948 | 21258 ft | 503 kts | 65° |
| 2026-05-07 01:45 | 33.53399 | -83.98048 | 21731 ft | 511 kts | 65° |
| 2026-05-07 01:45 | 33.54709 | -83.94055 | 22330 ft | 515 kts | 65° |
| 2026-05-07 01:45 | 33.56016 | -83.90065 | 22881 ft | 520 kts | 65° |
| 2026-05-07 01:46 | 33.57347 | -83.85997 | 23456 ft | 524 kts | 65° |
| 2026-05-07 01:46 | 33.58670 | -83.81940 | 23946 ft | 530 kts | 65° |
| 2026-05-07 01:46 | 33.60131 | -83.77895 | 24482 ft | 532 kts | 60° |
| 2026-05-07 01:46 | 33.61681 | -83.73878 | 25082 ft | 534 kts | 60° |
| 2026-05-07 01:47 | 33.63236 | -83.69846 | 25687 ft | 537 kts | 61° |
| 2026-05-07 01:47 | 33.64785 | -83.65759 | 26215 ft | 543 kts | 63° |
| 2026-05-07 01:47 | 33.66000 | -83.61435 | 26771 ft | 551 kts | 72° |
| 2026-05-07 01:47 | 33.66888 | -83.57005 | 27359 ft | 555 kts | 73° |
| 2026-05-07 01:48 | 33.67746 | -83.52461 | 27875 ft | 560 kts | 74° |
| 2026-05-07 01:48 | 33.68604 | -83.47883 | 28360 ft | 565 kts | 73° |
| 2026-05-07 01:48 | 33.69456 | -83.43317 | 28924 ft | 569 kts | 73° |
| 2026-05-07 01:48 | 33.70322 | -83.38670 | 29457 ft | 572 kts | 73° |
| 2026-05-07 01:49 | 33.71191 | -83.33996 | 30124 ft | 573 kts | 75° |
| 2026-05-07 01:49 | 33.72055 | -83.29336 | 30750 ft | 573 kts | 75° |
| 2026-05-07 01:49 | 33.72907 | -83.24728 | 31297 ft | 574 kts | 74° |
| 2026-05-07 01:49 | 33.73773 | -83.20052 | 31923 ft | 572 kts | 73° |
| 2026-05-07 01:50 | 33.74908 | -83.15509 | 32457 ft | 568 kts | 65° |
| 2026-05-07 01:50 | 33.76518 | -83.11198 | 32886 ft | 565 kts | 57° |
| 2026-05-07 01:50 | 33.78493 | -83.07136 | 32951 ft | 567 kts | 52° |
| 2026-05-07 01:51 | 33.82716 | -82.99010 | 32962 ft | 582 kts | 52° |
| 2026-05-07 01:51 | 33.86933 | -82.90867 | 32962 ft | 583 kts | 52° |
| 2026-05-07 01:52 | 33.91207 | -82.82582 | 32968 ft | 584 kts | 52° |
| 2026-05-07 01:52 | 33.95458 | -82.74313 | 32965 ft | 585 kts | 52° |
| 2026-05-07 01:53 | 33.99709 | -82.66013 | 32961 ft | 581 kts | 53° |
| 2026-05-07 01:53 | 34.03895 | -82.57741 | 32972 ft | 580 kts | 53° |
| 2026-05-07 01:54 | 34.08088 | -82.49433 | 32962 ft | 583 kts | 53° |
| 2026-05-07 01:54 | 34.12244 | -82.41176 | 32951 ft | 578 kts | 53° |
| 2026-05-07 01:55 | 34.16405 | -82.32896 | 32946 ft | 578 kts | 54° |
| 2026-05-07 01:55 | 34.20582 | -82.24563 | 32943 ft | 579 kts | 54° |
| 2026-05-07 01:56 | 34.24704 | -82.16319 | 32960 ft | 575 kts | 54° |
| 2026-05-07 01:56 | 34.28856 | -82.08058 | 32958 ft | 574 kts | 54° |
| 2026-05-07 01:57 | 34.33010 | -81.99804 | 32961 ft | 572 kts | 54° |
| 2026-05-07 01:57 | 34.37115 | -81.91625 | 32948 ft | 569 kts | 54° |
| 2026-05-07 01:58 | 34.41204 | -81.83460 | 32958 ft | 571 kts | 54° |
| 2026-05-07 01:58 | 34.45323 | -81.75214 | 32962 ft | 572 kts | 54° |
| 2026-05-07 01:59 | 34.49400 | -81.67031 | 32957 ft | 571 kts | 54° |
| 2026-05-07 01:59 | 34.53481 | -81.58821 | 32954 ft | 568 kts | 55° |
| 2026-05-07 02:00 | 34.57571 | -81.50575 | 32957 ft | 569 kts | 54° |
| 2026-05-07 02:00 | 34.61632 | -81.42369 | 32953 ft | 572 kts | 55° |
| 2026-05-07 02:01 | 34.65722 | -81.34081 | 32956 ft | 567 kts | 56° |
| 2026-05-07 02:01 | 34.69747 | -81.25906 | 32961 ft | 569 kts | 55° |
| 2026-05-07 02:02 | 34.73811 | -81.17638 | 32964 ft | 571 kts | 55° |
| 2026-05-07 02:02 | 34.77856 | -81.09384 | 32960 ft | 571 kts | 55° |
| 2026-05-07 02:03 | 34.81480 | -81.00821 | 32960 ft | 570 kts | 62° |
| 2026-05-07 02:03 | 34.84749 | -80.91980 | 32965 ft | 575 kts | 62° |
| 2026-05-07 02:04 | 34.88003 | -80.83138 | 32950 ft | 575 kts | 63° |
| 2026-05-07 02:04 | 34.91261 | -80.74263 | 32965 ft | 576 kts | 63° |
| 2026-05-07 02:05 | 34.94542 | -80.65301 | 32952 ft | 575 kts | 63° |
| 2026-05-07 02:05 | 34.97782 | -80.56431 | 32953 ft | 575 kts | 62° |
| 2026-05-07 02:06 | 35.01014 | -80.47557 | 32969 ft | 577 kts | 62° |
| 2026-05-07 02:06 | 35.04250 | -80.38648 | 32949 ft | 576 kts | 63° |
| 2026-05-07 02:07 | 35.07501 | -80.29673 | 32934 ft | 578 kts | 63° |
| 2026-05-07 02:07 | 35.12352 | -80.16233 | 32930 ft | 580 kts | 63° |
| 2026-05-07 02:08 | 35.15602 | -80.07197 | 32941 ft | 580 kts | 63° |
| 2026-05-07 02:08 | 35.18825 | -79.98209 | 32943 ft | 579 kts | 63° |
| 2026-05-07 02:09 | 35.22048 | -79.89218 | 32943 ft | 584 kts | 63° |
| 2026-05-07 02:09 | 35.25297 | -79.80126 | 32949 ft | 583 kts | 63° |
| 2026-05-07 02:10 | 35.28540 | -79.71029 | 32950 ft | 584 kts | 63° |
| 2026-05-07 02:10 | 35.31752 | -79.61987 | 32953 ft | 580 kts | 62° |
| 2026-05-07 02:11 | 35.34963 | -79.52933 | 32958 ft | 588 kts | 63° |
| 2026-05-07 02:11 | 35.38192 | -79.43787 | 32956 ft | 583 kts | 62° |
| 2026-05-07 02:12 | 35.41398 | -79.34687 | 32957 ft | 583 kts | 63° |
| 2026-05-07 02:12 | 35.44584 | -79.25616 | 32943 ft | 584 kts | 63° |
| 2026-05-07 02:13 | 35.47810 | -79.16406 | 32945 ft | 586 kts | 62° |
| 2026-05-07 02:13 | 35.51009 | -79.07243 | 32946 ft | 587 kts | 62° |
| 2026-05-07 02:14 | 35.54194 | -78.98099 | 32933 ft | 590 kts | 62° |
| 2026-05-07 02:14 | 35.57397 | -78.88869 | 32946 ft | 589 kts | 62° |
| 2026-05-07 02:15 | 35.60606 | -78.79593 | 32948 ft | 588 kts | 62° |
| 2026-05-07 02:15 | 35.63772 | -78.70412 | 32944 ft | 590 kts | 61° |
| 2026-05-07 02:16 | 35.66959 | -78.61137 | 32951 ft | 591 kts | 61° |
| 2026-05-07 02:16 | 35.70146 | -78.51834 | 32953 ft | 589 kts | 61° |
| 2026-05-07 02:17 | 35.73315 | -78.42561 | 32945 ft | 591 kts | 61° |
| 2026-05-07 02:17 | 35.76485 | -78.33261 | 32939 ft | 593 kts | 61° |
| 2026-05-07 02:18 | 35.79657 | -78.23925 | 32929 ft | 589 kts | 61° |
| 2026-05-07 02:18 | 35.82820 | -78.14597 | 32935 ft | 594 kts | 61° |
| 2026-05-07 02:19 | 35.85981 | -78.05234 | 32945 ft | 589 kts | 61° |
| 2026-05-07 02:19 | 35.89139 | -77.95861 | 32937 ft | 593 kts | 61° |
| 2026-05-07 02:20 | 35.92291 | -77.86473 | 32932 ft | 596 kts | 60° |
| 2026-05-07 02:20 | 35.95411 | -77.77145 | 32933 ft | 588 kts | 60° |
| 2026-05-07 02:21 | 35.99363 | -77.68459 | 32941 ft | 575 kts | 44° |
| 2026-05-07 02:21 | 36.01881 | -77.64744 | 32936 ft | 562 kts | 38° |
| 2026-05-07 02:21 | 36.04546 | -77.61148 | 32946 ft | 565 kts | 38° |
| 2026-05-07 02:22 | 36.09855 | -77.54027 | 32948 ft | 561 kts | 37° |
| 2026-05-07 02:22 | 36.15136 | -77.46931 | 32954 ft | 563 kts | 37° |
| 2026-05-07 02:23 | 36.20401 | -77.39838 | 32954 ft | 563 kts | 38° |
| 2026-05-07 02:23 | 36.25711 | -77.32671 | 32931 ft | 566 kts | 38° |
| 2026-05-07 02:24 | 36.31033 | -77.25500 | 32929 ft | 568 kts | 36° |
| 2026-05-07 02:24 | 36.36781 | -77.18920 | 32932 ft | 558 kts | 32° |
| 2026-05-07 02:25 | 36.42529 | -77.12505 | 32925 ft | 558 kts | 32° |
| 2026-05-07 02:25 | 36.48292 | -77.06053 | 32956 ft | 557 kts | 32° |
| 2026-05-07 02:26 | 36.54048 | -76.99592 | 32941 ft | 559 kts | 33° |
| 2026-05-07 02:26 | 36.59826 | -76.93091 | 32927 ft | 560 kts | 33° |
| 2026-05-07 02:27 | 36.65568 | -76.86611 | 32933 ft | 561 kts | 33° |
| 2026-05-07 02:27 | 36.71342 | -76.80082 | 32938 ft | 558 kts | 33° |
| 2026-05-07 02:28 | 36.77084 | -76.73576 | 32930 ft | 559 kts | 33° |
| 2026-05-07 02:28 | 36.82853 | -76.67024 | 32930 ft | 559 kts | 34° |
| 2026-05-07 02:29 | 36.88622 | -76.60460 | 32930 ft | 560 kts | 33° |
| 2026-05-07 02:29 | 36.94350 | -76.53927 | 32927 ft | 561 kts | 34° |
| 2026-05-07 02:30 | 37.00074 | -76.47383 | 32929 ft | 557 kts | 34° |
| 2026-05-07 02:30 | 37.05793 | -76.40833 | 32926 ft | 557 kts | 34° |
| 2026-05-07 02:31 | 37.11464 | -76.34324 | 32912 ft | 559 kts | 35° |
| 2026-05-07 02:31 | 37.17203 | -76.27723 | 32906 ft | 558 kts | 35° |
| 2026-05-07 02:32 | 37.22916 | -76.21137 | 32898 ft | 558 kts | 35° |
| 2026-05-07 02:32 | 37.28624 | -76.14543 | 32911 ft | 559 kts | 34° |
| 2026-05-07 02:33 | 37.34329 | -76.07940 | 32900 ft | 561 kts | 35° |
| 2026-05-07 02:33 | 37.40097 | -76.01247 | 32895 ft | 561 kts | 35° |
| 2026-05-07 02:34 | 37.45811 | -75.94602 | 32890 ft | 562 kts | 35° |
| 2026-05-07 02:34 | 37.51537 | -75.87937 | 32897 ft | 559 kts | 33° |
| 2026-05-07 02:35 | 37.57824 | -75.82391 | 32909 ft | 550 kts | 21° |
| 2026-05-07 02:35 | 37.64370 | -75.77510 | 32903 ft | 547 kts | 21° |
| 2026-05-07 02:36 | 37.70873 | -75.72650 | 32907 ft | 547 kts | 21° |
| 2026-05-07 02:36 | 37.77421 | -75.67737 | 32903 ft | 546 kts | 21° |
| 2026-05-07 02:37 | 37.83905 | -75.62857 | 32906 ft | 545 kts | 21° |
| 2026-05-07 02:37 | 37.90278 | -75.57526 | 32909 ft | 554 kts | 25° |
| 2026-05-07 02:38 | 37.96586 | -75.51965 | 32910 ft | 553 kts | 25° |
| 2026-05-07 02:38 | 38.02902 | -75.46414 | 32915 ft | 556 kts | 25° |
| 2026-05-07 02:39 | 38.09294 | -75.40958 | 32907 ft | 553 kts | 22° |
| 2026-05-07 02:39 | 38.15722 | -75.35740 | 32908 ft | 553 kts | 22° |
| 2026-05-07 02:40 | 38.22234 | -75.30595 | 32886 ft | 546 kts | 17° |
| 2026-05-07 02:40 | 38.25729 | -75.28629 | 32890 ft | 535 kts | 9° |
| 2026-05-07 02:40 | 38.29237 | -75.27351 | 32890 ft | 521 kts | 1° |
| 2026-05-07 02:41 | 38.36334 | -75.25772 | 32887 ft | 514 kts | 358° |
| 2026-05-07 02:41 | 38.43386 | -75.24290 | 32886 ft | 517 kts | 358° |
| 2026-05-07 02:42 | 38.50508 | -75.22789 | 32890 ft | 518 kts | 358° |
| 2026-05-07 02:42 | 38.57636 | -75.21294 | 32877 ft | 520 kts | 358° |
| 2026-05-07 02:43 | 38.64809 | -75.19773 | 32884 ft | 523 kts | 0° |
| 2026-05-07 02:43 | 38.71742 | -75.16695 | 32888 ft | 546 kts | 17° |
| 2026-05-07 02:44 | 38.75038 | -75.14133 | 32876 ft | 567 kts | 26° |
| 2026-05-07 02:44 | 38.78240 | -75.11060 | 32890 ft | 571 kts | 28° |
| 2026-05-07 02:44 | 38.84523 | -75.04834 | 32886 ft | 575 kts | 28° |
| 2026-05-07 02:45 | 38.90831 | -74.98585 | 32893 ft | 573 kts | 28° |
| 2026-05-07 02:45 | 38.97101 | -74.92376 | 32893 ft | 569 kts | 28° |
| 2026-05-07 02:46 | 39.03390 | -74.86155 | 32894 ft | 569 kts | 28° |
| 2026-05-07 02:46 | 39.06470 | -74.83092 | 32886 ft | 556 kts | 27° |
| 2026-05-07 02:46 | 39.09528 | -74.80053 | 32887 ft | 547 kts | 28° |
| 2026-05-07 02:47 | 39.12463 | -74.77012 | 32634 ft | 541 kts | 31° |
| 2026-05-07 02:47 | 39.15352 | -74.73881 | 31795 ft | 545 kts | 30° |
| 2026-05-07 02:47 | 39.18272 | -74.70710 | 30692 ft | 553 kts | 31° |
| 2026-05-07 02:47 | 39.21211 | -74.67518 | 29798 ft | 556 kts | 31° |
| 2026-05-07 02:48 | 39.24135 | -74.64333 | 29346 ft | 549 kts | 31° |
| 2026-05-07 02:48 | 39.27011 | -74.61191 | 28942 ft | 542 kts | 31° |
| 2026-05-07 02:48 | 39.29851 | -74.58080 | 28539 ft | 536 kts | 31° |
| 2026-05-07 02:48 | 39.32698 | -74.54954 | 28117 ft | 532 kts | 31° |
| 2026-05-07 02:49 | 39.35487 | -74.51891 | 27715 ft | 529 kts | 32° |
| 2026-05-07 02:49 | 39.38293 | -74.48809 | 27304 ft | 529 kts | 32° |
| 2026-05-07 02:49 | 39.41076 | -74.45754 | 26925 ft | 527 kts | 31° |
| 2026-05-07 02:49 | 39.43842 | -74.42717 | 26538 ft | 523 kts | 32° |
| 2026-05-07 02:50 | 39.46608 | -74.39674 | 26156 ft | 518 kts | 31° |
| 2026-05-07 02:50 | 39.49320 | -74.36687 | 25771 ft | 514 kts | 31° |
| 2026-05-07 02:50 | 39.52050 | -74.33678 | 25383 ft | 511 kts | 32° |
| 2026-05-07 02:50 | 39.54754 | -74.30696 | 24969 ft | 510 kts | 32° |
| 2026-05-07 02:51 | 39.57418 | -74.27760 | 24567 ft | 507 kts | 32° |
| 2026-05-07 02:51 | 39.60091 | -74.24811 | 23833 ft | 502 kts | 33° |
| 2026-05-07 02:51 | 39.62741 | -74.21881 | 23105 ft | 498 kts | 32° |
| 2026-05-07 02:51 | 39.65353 | -74.18989 | 22400 ft | 491 kts | 32° |
| 2026-05-07 02:52 | 39.67910 | -74.16166 | 21668 ft | 483 kts | 32° |
| 2026-05-07 02:52 | 39.70475 | -74.13404 | 20912 ft | 475 kts | 32° |
| 2026-05-07 02:52 | 39.72980 | -74.10699 | 20238 ft | 465 kts | 32° |
| 2026-05-07 02:52 | 39.75433 | -74.08035 | 19509 ft | 457 kts | 33° |
| 2026-05-07 02:53 | 39.77831 | -74.05421 | 18408 ft | 460 kts | 33° |
| 2026-05-07 02:53 | 39.80294 | -74.02731 | 16921 ft | 470 kts | 34° |
| 2026-05-07 02:53 | 39.82790 | -74.00005 | 15733 ft | 468 kts | 33° |
| 2026-05-07 02:53 | 39.85435 | -73.97675 | 14892 ft | 451 kts | 24° |
| 2026-05-07 02:54 | 39.88102 | -73.95750 | 14175 ft | 439 kts | 23° |
| 2026-05-07 02:54 | 39.90768 | -73.93863 | 13288 ft | 433 kts | 23° |
| 2026-05-07 02:54 | 39.93396 | -73.92005 | 12357 ft | 430 kts | 23° |
| 2026-05-07 02:54 | 39.96016 | -73.90152 | 11780 ft | 429 kts | 24° |
| 2026-05-07 02:55 | 39.98615 | -73.88309 | 11426 ft | 420 kts | 24° |
| 2026-05-07 02:55 | 40.01154 | -73.86519 | 11289 ft | 407 kts | 21° |
| 2026-05-07 02:55 | 40.03695 | -73.85105 | 10949 ft | 396 kts | 15° |
| 2026-05-07 02:55 | 40.06254 | -73.83827 | 10601 ft | 388 kts | 15° |
| 2026-05-07 02:56 | 40.08736 | -73.82592 | 10303 ft | 373 kts | 15° |
| 2026-05-07 02:56 | 40.11098 | -73.81413 | 10112 ft | 353 kts | 15° |
| 2026-05-07 02:56 | 40.13346 | -73.80293 | 9728 ft | 343 kts | 14° |
| 2026-05-07 02:56 | 40.15535 | -73.79205 | 9251 ft | 337 kts | 14° |
| 2026-05-07 02:57 | 40.17703 | -73.78123 | 8843 ft | 328 kts | 15° |
| 2026-05-07 02:57 | 40.19801 | -73.77074 | 8522 ft | 321 kts | 15° |
| 2026-05-07 02:57 | 40.21868 | -73.76041 | 8258 ft | 312 kts | 15° |
| 2026-05-07 02:57 | 40.23853 | -73.75043 | 8037 ft | 303 kts | 15° |
| 2026-05-07 02:58 | 40.25820 | -73.74061 | 7568 ft | 303 kts | 14° |
| 2026-05-07 02:58 | 40.27803 | -73.73069 | 7134 ft | 305 kts | 15° |
| 2026-05-07 02:58 | 40.29727 | -73.72100 | 7009 ft | 295 kts | 15° |
| 2026-05-07 02:58 | 40.31654 | -73.71133 | 6493 ft | 298 kts | 15° |
| 2026-05-07 02:59 | 40.33584 | -73.70164 | 6070 ft | 295 kts | 15° |
| 2026-05-07 02:59 | 40.35490 | -73.69203 | 5707 ft | 291 kts | 15° |
| 2026-05-07 02:59 | 40.37350 | -73.68266 | 5341 ft | 287 kts | 15° |
| 2026-05-07 02:59 | 40.39207 | -73.67330 | 4996 ft | 282 kts | 15° |
| 2026-05-07 03:00 | 40.41029 | -73.66412 | 4658 ft | 278 kts | 15° |
| 2026-05-07 03:00 | 40.42804 | -73.65517 | 4322 ft | 275 kts | 15° |
| 2026-05-07 03:00 | 40.44581 | -73.64621 | 4001 ft | 274 kts | 15° |
| 2026-05-07 03:00 | 40.46362 | -73.63731 | 3657 ft | 274 kts | 15° |
| 2026-05-07 03:01 | 40.48160 | -73.62871 | 3434 ft | 267 kts | 9° |